createdAt,value
2018-12-07T00:00:05.491Z,97947.00
2018-12-07T00:04:07.942Z,97941.00
2018-12-07T00:08:10.316Z,97938.00
2018-12-07T00:12:12.697Z,97937.00
2018-12-07T00:16:15.294Z,97937.00
2018-12-07T00:20:17.814Z,97930.00
2018-12-07T00:24:20.183Z,97923.00
2018-12-07T00:28:22.584Z,97925.00
2018-12-07T00:32:25.163Z,97925.00
2018-12-07T00:36:27.607Z,97911.00
2018-12-07T00:40:30.044Z,97895.00
2018-12-07T00:44:32.434Z,97898.00
2018-12-07T00:48:34.784Z,97899.00
2018-12-07T00:52:37.224Z,97897.00
2018-12-07T00:56:39.674Z,97893.00
2018-12-07T01:00:42.972Z,97904.00
2018-12-07T01:04:45.338Z,97879.00
2018-12-07T01:08:47.739Z,97890.00
2018-12-07T01:12:50.137Z,97881.00
2018-12-07T01:16:52.519Z,97877.00
2018-12-07T01:20:54.937Z,97870.00
2018-12-07T01:24:57.316Z,97882.00
2018-12-07T01:28:59.699Z,97883.00
2018-12-07T01:33:02.119Z,97870.00
2018-12-07T01:37:04.524Z,97867.00
2018-12-07T01:41:06.935Z,97872.00
2018-12-07T01:45:09.336Z,97863.00
2018-12-07T01:49:11.687Z,97850.00
2018-12-07T01:53:14.032Z,97850.00
2018-12-07T01:57:16.462Z,97847.00
2018-12-07T02:01:18.959Z,97838.00
2018-12-07T02:05:21.336Z,97843.00
2018-12-07T02:09:23.839Z,97837.00
2018-12-07T02:13:26.206Z,97827.00
2018-12-07T02:17:28.611Z,97818.00
2018-12-07T02:21:30.977Z,97815.00
2018-12-07T02:25:33.374Z,97807.00
2018-12-07T02:29:35.753Z,97812.00
2018-12-07T02:33:38.128Z,97802.00
2018-12-07T02:37:40.488Z,97794.00
2018-12-07T02:41:42.826Z,97795.00
2018-12-07T02:45:45.267Z,97794.00
2018-12-07T02:49:47.718Z,97797.00
2018-12-07T02:53:50.143Z,97792.00
2018-12-07T02:57:52.635Z,97797.00
2018-12-07T03:01:55.040Z,97780.00
2018-12-07T03:05:57.404Z,97779.00
2018-12-07T03:09:59.801Z,97783.00
2018-12-07T03:14:02.209Z,97781.00
2018-12-07T03:18:04.625Z,97772.00
2018-12-07T03:22:06.978Z,97766.00
2018-12-07T03:26:09.341Z,97758.00
2018-12-07T03:30:11.783Z,97748.00
2018-12-07T03:34:14.222Z,97744.00
2018-12-07T03:38:16.626Z,97735.00
2018-12-07T03:42:19.085Z,97743.00
2018-12-07T03:46:21.466Z,97742.00
2018-12-07T03:50:23.907Z,97741.00
2018-12-07T03:54:26.286Z,97735.00
2018-12-07T03:58:28.628Z,97738.00
2018-12-07T04:02:30.990Z,97725.00
2018-12-07T04:06:33.431Z,97722.00
2018-12-07T04:10:35.852Z,97717.00
2018-12-07T04:14:38.174Z,97721.00
2018-12-07T04:18:40.524Z,97722.00
2018-12-07T04:22:42.886Z,97710.00
2018-12-07T04:26:45.227Z,97702.00
2018-12-07T04:30:47.569Z,97698.00
2018-12-07T04:34:49.973Z,97702.00
2018-12-07T04:38:52.370Z,97701.00
2018-12-07T04:42:54.733Z,97690.00
2018-12-07T04:46:57.085Z,97683.00
2018-12-07T04:50:59.497Z,97678.00
2018-12-07T04:55:01.873Z,97671.00
2018-12-07T04:59:04.226Z,97665.00
2018-12-07T05:03:07.365Z,97659.00
2018-12-07T05:07:09.671Z,97659.00
2018-12-07T05:11:12.062Z,97661.00
2018-12-07T05:15:14.412Z,97665.00
2018-12-07T05:19:16.802Z,97658.00
2018-12-07T05:23:19.152Z,97651.00
2018-12-07T05:27:21.591Z,97649.00
2018-12-07T05:31:23.947Z,97647.00
2018-12-07T05:35:26.357Z,97640.00
2018-12-07T05:39:28.653Z,97631.00
2018-12-07T05:43:31.047Z,97635.00
2018-12-07T05:47:33.497Z,97634.00
2018-12-07T05:51:35.836Z,97629.00
2018-12-07T05:55:38.390Z,97624.00
2018-12-07T05:59:40.706Z,97622.00
2018-12-07T06:03:43.088Z,97612.00
2018-12-07T06:07:45.470Z,97600.00
2018-12-07T06:11:47.781Z,97606.00
2018-12-07T06:15:50.180Z,97601.00
2018-12-07T06:19:52.552Z,97598.00
2018-12-07T06:23:54.934Z,97595.00
2018-12-07T06:27:57.293Z,97590.00
2018-12-07T06:31:59.598Z,97598.00
2018-12-07T06:36:01.955Z,97590.00
2018-12-07T06:40:04.681Z,97594.00
2018-12-07T06:44:07.057Z,97605.00
2018-12-07T06:48:09.399Z,97596.00
2018-12-07T06:52:11.763Z,97591.00
2018-12-07T06:56:14.273Z,97596.00
2018-12-07T07:00:16.699Z,97595.00
2018-12-07T07:04:19.059Z,97594.00
2018-12-07T07:08:21.399Z,97592.00
2018-12-07T07:12:24.300Z,97589.00
2018-12-07T07:16:26.840Z,97569.00
2018-12-07T07:20:29.228Z,97582.00
2018-12-07T07:24:31.605Z,97562.00
2018-12-07T07:28:33.990Z,97556.00
2018-12-07T07:32:36.383Z,97546.00
2018-12-07T07:36:38.804Z,97553.00
2018-12-07T07:40:41.199Z,97547.00
2018-12-07T07:44:43.582Z,97534.00
2018-12-07T07:48:46.004Z,97532.00
2018-12-07T07:52:48.559Z,97518.00
2018-12-07T07:56:51.008Z,97514.00
2018-12-07T08:00:53.355Z,97513.00
2018-12-07T08:04:55.737Z,97497.00
2018-12-07T08:08:58.170Z,97499.00
2018-12-07T08:13:00.546Z,97510.00
2018-12-07T08:17:02.889Z,97503.00
2018-12-07T08:21:05.312Z,97487.00
2018-12-07T08:25:07.744Z,97489.00
2018-12-07T08:29:10.111Z,97487.00
2018-12-07T08:33:12.511Z,97485.00
2018-12-07T08:37:14.828Z,97492.00
2018-12-07T08:41:17.237Z,97485.00
2018-12-07T08:45:19.588Z,97473.00
2018-12-07T08:49:27.491Z,97475.00
2018-12-07T08:53:29.919Z,97471.00
2018-12-07T08:57:32.324Z,97453.00
2018-12-07T09:01:34.668Z,97446.00
2018-12-07T09:05:37.066Z,97461.00
2018-12-07T09:09:39.430Z,97450.00
2018-12-07T09:13:41.843Z,97447.00
2018-12-07T09:17:44.289Z,97445.00
2018-12-07T09:21:46.721Z,97423.00
2018-12-07T09:25:49.087Z,97420.00
2018-12-07T09:29:51.501Z,97422.00
2018-12-07T09:33:54.022Z,97423.00
2018-12-07T09:37:56.522Z,97425.00
2018-12-07T09:41:59.176Z,97407.00
2018-12-07T09:46:01.711Z,97415.00
2018-12-07T09:50:04.827Z,97401.00
2018-12-07T09:54:08.781Z,97396.00
2018-12-07T09:58:11.285Z,97383.00
2018-12-07T10:02:13.626Z,97374.00
2018-12-07T10:06:15.994Z,97377.00
2018-12-07T10:10:18.425Z,97379.00
2018-12-07T10:14:20.911Z,97374.00
2018-12-07T10:18:23.581Z,97367.00
2018-12-07T10:22:26.002Z,97355.00
2018-12-07T10:26:28.336Z,97350.00
2018-12-07T10:30:31.128Z,97335.00
2018-12-07T10:34:33.494Z,97332.00
2018-12-07T10:38:35.860Z,97326.00
2018-12-07T10:42:38.271Z,97320.00
2018-12-07T10:46:40.569Z,97305.00
2018-12-07T10:50:42.918Z,97304.00
2018-12-07T10:54:45.369Z,97292.00
2018-12-07T10:58:47.725Z,97283.00
2018-12-07T11:02:55.780Z,97280.00
2018-12-07T11:07:03.762Z,97268.00
2018-12-07T11:11:11.721Z,97237.00
2018-12-07T11:16:23.665Z,97244.00
2018-12-07T11:20:31.664Z,97233.00
2018-12-07T11:24:39.681Z,97226.00
2018-12-07T11:28:46.666Z,97220.00
2018-12-07T11:33:55.238Z,97225.00
2018-12-07T11:37:57.806Z,97223.00
2018-12-07T11:42:00.172Z,97210.00
2018-12-07T11:46:02.584Z,97196.00
2018-12-07T11:50:06.180Z,97179.00
2018-12-07T11:54:08.578Z,97169.00
2018-12-07T11:58:10.916Z,97175.00
2018-12-07T12:02:13.421Z,97162.00
2018-12-07T12:06:16.787Z,97147.00
2018-12-07T12:10:19.205Z,97134.00
2018-12-07T12:14:21.659Z,97126.00
2018-12-07T12:18:24.060Z,97113.00
2018-12-07T12:22:26.533Z,97112.00
2018-12-07T12:26:28.968Z,97095.00
2018-12-07T12:30:31.383Z,97088.00
2018-12-07T12:34:33.849Z,97083.00
2018-12-07T12:38:36.267Z,97062.00
2018-12-07T12:42:38.756Z,97052.00
2018-12-07T12:46:41.196Z,97055.00
2018-12-07T12:50:43.728Z,97051.00
2018-12-07T12:54:46.178Z,97038.00
2018-12-07T12:58:48.533Z,97030.00
2018-12-07T13:02:50.927Z,97017.00
2018-12-07T13:06:54.391Z,97030.00
2018-12-07T13:10:56.866Z,96997.00
2018-12-07T13:14:59.411Z,96981.00
2018-12-07T13:19:02.109Z,96975.00
2018-12-07T13:23:04.556Z,96975.00
2018-12-07T13:27:06.942Z,96950.00
2018-12-07T13:31:09.471Z,96932.00
2018-12-07T13:35:11.976Z,96913.00
2018-12-07T13:39:14.788Z,96916.00
2018-12-07T13:43:17.558Z,96905.00
2018-12-07T13:47:20.048Z,96911.00
2018-12-07T13:51:22.659Z,96892.00
2018-12-07T13:55:25.158Z,96889.00
2018-12-07T13:59:27.568Z,96887.00
2018-12-07T14:03:30.139Z,96870.00
2018-12-07T14:07:32.512Z,96854.00
2018-12-07T14:11:35.602Z,96858.00
2018-12-07T14:15:38.193Z,96850.00
2018-12-07T14:19:40.646Z,96834.00
2018-12-07T14:23:43.009Z,96833.00
2018-12-07T14:27:45.444Z,96818.00
2018-12-07T14:31:47.951Z,96808.00
2018-12-07T14:35:50.451Z,96792.00
2018-12-07T14:39:55.306Z,96773.00
2018-12-07T14:43:57.556Z,96788.00
2018-12-07T14:48:00.036Z,96787.00
2018-12-07T14:52:03.460Z,96758.00
2018-12-07T14:56:05.885Z,96754.00
2018-12-07T15:00:08.333Z,96790.00
2018-12-07T15:04:10.873Z,96763.00
2018-12-07T15:08:13.425Z,96757.00
2018-12-07T15:12:15.844Z,96727.00
2018-12-07T15:16:18.436Z,96735.00
2018-12-07T15:20:20.934Z,96715.00
2018-12-07T15:24:23.413Z,96712.00
2018-12-07T15:28:25.802Z,96717.00
2018-12-07T15:32:28.333Z,96741.00
2018-12-07T15:36:30.782Z,96701.00
2018-12-07T15:40:33.169Z,96686.00
2018-12-07T15:44:35.753Z,96679.00
2018-12-07T15:48:38.029Z,96648.00
2018-12-07T15:52:40.675Z,96657.00
2018-12-07T15:56:42.955Z,96649.00
2018-12-07T16:00:45.509Z,96635.00
2018-12-07T16:04:47.821Z,96641.00
2018-12-07T16:08:50.239Z,96645.00
2018-12-07T16:12:52.546Z,96635.00
2018-12-07T16:16:54.969Z,96625.00
2018-12-07T16:20:57.450Z,96616.00
2018-12-07T16:24:59.906Z,96601.00
2018-12-07T16:29:02.556Z,96583.00
2018-12-07T16:33:04.963Z,96569.00
2018-12-07T16:37:07.314Z,96581.00
2018-12-07T16:41:09.685Z,96584.00
2018-12-07T16:45:12.220Z,96570.00
2018-12-07T16:49:14.711Z,96574.00
2018-12-07T16:53:17.339Z,96576.00
2018-12-07T16:57:20.022Z,96574.00
2018-12-07T17:01:22.354Z,96549.00
2018-12-07T17:05:24.946Z,96520.00
2018-12-07T17:09:27.319Z,96529.00
2018-12-07T17:13:29.807Z,96513.00
2018-12-07T17:17:32.254Z,96497.00
2018-12-07T17:21:35.012Z,96476.00
2018-12-07T17:25:37.682Z,96477.00
2018-12-07T17:29:40.148Z,96450.00
2018-12-07T17:33:43.430Z,96462.00
2018-12-07T17:37:45.513Z,96444.00
2018-12-07T17:41:48.053Z,96436.00
2018-12-07T17:45:50.675Z,96441.00
2018-12-07T17:49:53.196Z,96418.00
2018-12-07T17:53:55.502Z,96415.00
2018-12-07T17:57:58.549Z,96419.00
2018-12-07T18:02:01.300Z,96400.00
2018-12-07T18:06:04.164Z,96389.00
2018-12-07T18:10:09.136Z,96401.00
2018-12-07T18:14:11.491Z,96389.00
2018-12-07T18:18:14.906Z,96376.00
2018-12-07T18:22:18.135Z,96380.00
2018-12-07T18:26:20.460Z,96354.00
2018-12-07T18:30:22.859Z,96365.00
2018-12-07T18:34:25.656Z,96372.00
2018-12-07T18:38:30.132Z,96367.00
2018-12-07T18:42:32.661Z,96338.00
2018-12-07T18:46:35.326Z,96356.00
2018-12-07T18:50:37.812Z,96346.00
2018-12-07T18:54:40.501Z,96344.00
2018-12-07T18:58:43.217Z,96348.00
2018-12-07T19:02:45.844Z,96305.00
2018-12-07T19:06:48.492Z,96323.00
2018-12-07T19:10:51.253Z,96335.00
2018-12-07T19:14:53.816Z,96336.00
2018-12-07T19:18:56.294Z,96350.00
2018-12-07T19:22:58.569Z,96342.00
2018-12-07T19:27:01.167Z,96358.00
2018-12-07T19:31:03.851Z,96372.00
2018-12-07T19:35:06.104Z,96394.00
2018-12-07T19:39:09.142Z,96421.00
2018-12-07T19:43:11.500Z,96406.00
2018-12-07T19:47:14.046Z,96433.00
2018-12-07T19:51:16.878Z,96433.00
2018-12-07T19:55:19.255Z,96445.00
2018-12-07T19:59:21.971Z,96458.00
2018-12-07T20:03:24.264Z,96458.00
2018-12-07T20:07:26.810Z,96489.00
2018-12-07T20:11:29.054Z,96496.00
2018-12-07T20:15:31.818Z,96527.00
2018-12-07T20:19:33.975Z,96554.00
2018-12-07T20:23:36.701Z,96553.00
2018-12-07T20:27:39.550Z,96565.00
2018-12-07T20:31:42.047Z,96572.00
2018-12-07T20:35:44.560Z,96583.00
2018-12-07T20:39:46.873Z,96581.00
2018-12-07T20:43:50.613Z,96596.00
2018-12-07T20:47:53.551Z,96614.00
2018-12-07T20:51:56.493Z,96617.00
2018-12-07T20:55:59.203Z,96664.00
2018-12-07T21:00:02.437Z,96670.00
2018-12-07T21:04:24.064Z,96682.00
2018-12-07T21:09:33.806Z,96695.00
2018-12-07T21:14:46.827Z,96733.00
2018-12-07T21:18:49.417Z,96746.00
2018-12-07T21:22:52.370Z,96755.00
2018-12-07T21:26:54.769Z,96776.00
2018-12-07T21:31:00.729Z,96769.00
2018-12-07T21:35:07.983Z,96777.00
2018-12-07T21:39:23.049Z,96777.00
2018-12-07T21:43:25.262Z,96790.00
2018-12-07T21:47:50.637Z,96797.00
2018-12-07T21:52:09.795Z,96802.00
2018-12-07T21:56:12.335Z,96806.00
2018-12-07T22:00:15.046Z,96812.00
2018-12-07T22:04:17.362Z,96821.00
2018-12-07T22:08:19.937Z,96829.00
2018-12-07T22:12:22.580Z,96845.00
2018-12-07T22:16:25.418Z,96831.00
2018-12-07T22:20:28.749Z,96855.00
2018-12-07T22:24:34.149Z,96868.00
2018-12-07T22:28:38.290Z,96868.00
2018-12-07T22:32:40.946Z,96883.00
2018-12-07T22:36:43.315Z,96874.00
2018-12-07T22:40:45.843Z,96905.00
2018-12-07T22:44:48.649Z,96898.00
2018-12-07T22:48:50.853Z,96910.00
2018-12-07T22:52:53.288Z,96909.00
2018-12-07T22:56:55.710Z,96915.00
2018-12-07T23:00:58.459Z,96921.00
2018-12-07T23:05:01.794Z,96929.00
2018-12-07T23:09:06.033Z,96930.00
2018-12-07T23:13:08.341Z,96922.00
2018-12-07T23:17:10.689Z,96937.00
2018-12-07T23:21:13.086Z,96941.00
2018-12-07T23:25:15.464Z,96938.00
2018-12-07T23:29:22.512Z,96951.00
2018-12-07T23:33:24.734Z,96953.00
2018-12-07T23:37:27.348Z,96946.00
2018-12-07T23:41:29.721Z,96962.00
2018-12-07T23:45:32.112Z,96962.00
2018-12-07T23:49:34.443Z,96973.00
2018-12-07T23:53:37.657Z,96971.00
2018-12-07T23:57:41.020Z,96986.00
